Time;durP1;ratioP1;P1;durP2;ratioP2;P2;SDS_P1;SDS_P2;PMS_P1;PMS_P2;Temp;Humidity;BMP_temperature;BMP_pressure;BME280_temperature;BME280_humidity;BME280_pressure;Samples;Min_cycle;Max_cycle;Signal;HPM_P1;HPM_P2
2022/05/30 00:02:10;;;;;;;;;;;10.70;99.90;;;;;;5097254;28;20028;-63
2022/05/30 00:04:37;;;;;;;2.35;1.92;;;10.70;99.90;;;;;;5096676;28;19904;-63
2022/05/30 00:07:04;;;;;;;;;;;10.70;99.90;;;;;;5078565;28;20024;-63
2022/05/30 00:09:30;;;;;;;2.25;1.80;;;10.70;99.90;;;;;;5096585;28;20439;-63
2022/05/30 00:11:55;;;;;;;2.70;1.93;;;10.80;99.90;;;;;;5096520;28;20045;-60
2022/05/30 00:14:21;;;;;;;3.47;1.87;;;10.70;99.90;;;;;;5096507;28;20385;-63
2022/05/30 00:16:46;;;;;;;3.50;2.10;;;10.70;99.90;;;;;;5096598;28;20032;-60
2022/05/30 00:19:12;;;;;;;4.83;2.20;;;10.70;99.90;;;;;;5097348;28;20058;-63
2022/05/30 00:21:38;;;;;;;4.70;2.33;;;10.70;99.90;;;;;;5078070;28;20028;-63
2022/05/30 00:24:04;;;;;;;3.28;2.20;;;10.70;99.90;;;;;;5096260;28;20028;-65
2022/05/30 00:26:29;;;;;;;3.85;1.80;;;10.70;99.90;;;;;;5095925;28;20478;-63
2022/05/30 00:28:55;;;;;;;4.77;2.57;;;10.70;99.90;;;;;;5096147;28;20475;-63
2022/05/30 00:31:21;;;;;;;2.93;2.00;;;10.70;99.90;;;;;;5077591;28;20254;-61
2022/05/30 00:33:48;;;;;;;2.28;1.85;;;10.80;99.90;;;;;;5096134;28;20078;-63
2022/05/30 00:36:14;;;;;;;3.75;1.83;;;10.70;99.90;;;;;;5095640;28;20039;-63
2022/05/30 00:38:40;;;;;;;3.13;2.15;;;10.70;99.90;;;;;;5094466;28;20044;-62
2022/05/30 00:41:06;;;;;;;7.15;2.05;;;10.70;99.90;;;;;;5096119;28;20502;-63
2022/05/30 00:43:33;;;;;;;;;;;10.70;99.90;;;;;;5096363;28;20032;-64
2022/05/30 00:46:01;;;;;;;3.15;2.58;;;10.60;99.90;;;;;;5096206;28;19908;-63
2022/05/30 00:48:32;;;;;;;4.65;1.98;;;10.50;99.90;;;;;;5095716;28;20031;-62
2022/05/30 00:51:04;;;;;;;5.43;1.92;;;10.40;99.90;;;;;;5095977;28;20020;-62
2022/05/30 00:53:33;;;;;;;4.70;2.22;;;10.40;99.90;;;;;;5096278;28;20485;-62
2022/05/30 00:56:02;;;;;;;5.47;2.50;;;10.30;99.90;;;;;;5096233;28;20035;-61
2022/05/30 00:58:31;;;;;;;3.38;1.88;;;10.30;99.90;;;;;;5096580;28;20028;-63
2022/05/30 01:00:58;;;;;;;5.72;2.22;;;10.30;99.90;;;;;;5095925;28;20546;-61
2022/05/30 01:08:54;;;;;;;3.15;2.10;;;10.20;99.90;;;;;;5095796;28;20027;-63
2022/05/30 01:11:19;;;;;;;3.92;2.20;;;10.10;99.90;;;;;;5095881;28;20058;-63
2022/05/30 01:13:45;;;;;;;3.53;2.10;;;10.10;99.90;;;;;;5095335;28;20060;-62
2022/05/30 01:16:10;;;;;;;2.97;2.00;;;10.10;99.90;;;;;;5095372;28;20387;-62
2022/05/30 01:18:43;;;;;;;7.43;2.37;;;10.10;99.90;;;;;;5094858;28;20028;-61
2022/05/30 01:21:30;;;;;;;4.45;2.47;;;10.00;99.90;;;;;;5094892;28;20043;-62
2022/05/30 01:24:04;;;;;;;5.72;2.47;;;9.90;99.90;;;;;;5094974;28;20059;-62
2022/05/30 01:26:51;;;;;;;3.40;2.33;;;9.90;99.90;;;;;;5094797;28;20032;-62
2022/05/30 01:29:23;;;;;;;3.57;2.50;;;9.90;99.90;;;;;;5094946;28;20024;-62
2022/05/30 01:31:48;;;;;;;3.10;2.28;;;9.80;99.90;;;;;;5094677;28;20028;-61
2022/05/30 01:34:14;;;;;;;4.70;2.30;;;9.80;99.90;;;;;;5094819;28;20020;-62
2022/05/30 01:36:40;;;;;;;4.28;2.42;;;9.70;99.90;;;;;;5094511;28;20032;-62
2022/05/30 01:39:06;;;;;;;3.10;1.93;;;9.70;99.90;;;;;;5094591;28;20062;-61
2022/05/30 01:41:32;;;;;;;10.30;2.30;;;9.70;99.90;;;;;;5076215;28;20024;-62
2022/05/30 01:43:57;;;;;;;5.22;2.10;;;9.60;99.90;;;;;;5094619;28;20043;-62
2022/05/30 01:46:24;;;;;;;2.53;2.20;;;9.60;99.90;;;;;;5094349;28;20107;-62
2022/05/30 01:48:50;;;;;;;5.50;2.55;;;9.50;99.90;;;;;;5094397;28;20043;-61
2022/05/30 01:51:19;;;;;;;3.65;2.47;;;9.50;99.90;;;;;;5094136;28;20448;-60
2022/05/30 01:53:46;;;;;;;3.30;2.30;;;9.50;99.90;;;;;;5075844;28;20024;-62
2022/05/30 01:56:12;;;;;;;2.70;1.95;;;9.50;99.90;;;;;;5094442;28;20028;-64
2022/05/30 01:58:37;;;;;;;3.08;1.90;;;9.40;99.90;;;;;;5094673;28;20428;-59
2022/05/30 02:01:05;;;;;;;4.73;2.07;;;9.40;99.90;;;;;;5094351;28;20032;-61
2022/05/30 02:03:33;;;;;;;4.20;2.55;;;9.40;99.90;;;;;;5094361;28;20103;-62
2022/05/30 02:05:59;;;;;;;3.88;2.60;;;9.30;99.90;;;;;;5093979;28;20103;-62
2022/05/30 02:08:25;;;;;;;2.50;2.00;;;9.20;99.90;;;;;;5093875;28;20054;-61
2022/05/30 02:10:50;;;;;;;3.60;2.30;;;9.20;99.90;;;;;;5093921;28;20051;-61
2022/05/30 02:13:16;;;;;;;3.20;2.43;;;9.20;99.90;;;;;;5093980;28;20032;-62
2022/05/30 02:18:26;;;;;;;3.28;2.42;;;9.00;99.90;;;;;;5094308;28;20035;-62
2022/05/30 02:20:51;;;;;;;6.93;2.80;;;9.00;99.90;;;;;;5093508;28;20017;-62
2022/05/30 02:23:17;;;;;;;2.73;2.33;;;9.00;99.90;;;;;;5093869;28;20459;-62
2022/05/30 02:25:44;;;;;;;3.17;2.67;;;8.90;99.90;;;;;;5093590;28;20452;-62
2022/05/30 02:28:10;;;;;;;3.15;2.47;;;8.90;99.90;;;;;;5093634;28;20111;-63
2022/05/30 02:30:36;;;;;;;4.70;2.80;;;8.90;99.90;;;;;;5093382;28;20081;-62
2022/05/30 02:38:29;;;;;;;7.75;3.13;;;8.80;99.90;;;;;;5093444;28;20035;-61
2022/05/30 02:40:55;;;;;;;3.87;3.00;;;8.80;99.90;;;;;;5093172;28;20028;-62
2022/05/30 02:43:20;;;;;;;5.43;2.97;;;8.80;99.90;;;;;;5075073;28;20466;-62
2022/05/30 02:45:46;;;;;;;4.10;2.90;;;8.80;99.90;;;;;;5093277;28;20020;-63
2022/05/30 02:48:12;;;;;;;3.83;2.80;;;8.70;99.90;;;;;;5093329;28;20016;-62
2022/05/30 02:50:38;;;;;;;5.53;3.00;;;8.70;99.90;;;;;;5092997;28;20020;-62
2022/05/30 02:53:03;;;;;;;4.18;2.80;;;8.70;99.90;;;;;;5093091;28;20073;-62
2022/05/30 02:55:29;;;;;;;3.93;2.77;;;8.70;99.90;;;;;;5093126;28;20371;-62
2022/05/30 02:57:54;;;;;;;5.97;3.00;;;8.70;99.90;;;;;;5092927;28;20475;-62
2022/05/30 03:00:20;;;;;;;4.90;2.57;;;8.70;99.90;;;;;;5092909;28;20385;-62
2022/05/30 03:02:46;;;;;;;4.47;2.97;;;8.70;99.90;;;;;;5092514;28;20556;-62
2022/05/30 03:05:11;;;;;;;4.13;2.97;;;8.70;99.90;;;;;;5093173;28;20055;-62
2022/05/30 03:07:37;;;;;;;3.77;2.90;;;8.80;99.90;;;;;;5074818;28;20035;-63
2022/05/30 03:10:04;;;;;;;7.10;2.80;;;8.80;99.90;;;;;;5115012;22;20044;-62
2022/05/30 03:12:29;;;;;;;5.55;3.25;;;8.90;99.90;;;;;;5093417;28;20047;-61
2022/05/30 03:14:55;;;;;;;4.70;3.30;;;8.80;99.90;;;;;;5092906;28;20020;-61
2022/05/30 03:17:20;;;;;;;4.03;2.93;;;8.80;99.90;;;;;;5074985;28;20020;-63
2022/05/30 03:19:46;;;;;;;5.50;2.93;;;8.80;99.90;;;;;;5093162;28;20059;-62
2022/05/30 03:22:12;;;;;;;5.37;2.77;;;8.80;99.90;;;;;;5092923;28;20039;-60
2022/05/30 03:24:37;;;;;;;6.77;2.83;;;8.80;99.90;;;;;;5075018;28;20060;-63
2022/05/30 03:27:03;;;;;;;8.37;3.20;;;8.70;99.90;;;;;;5076873;28;20062;-63
2022/05/30 03:29:29;;;;;;;3.67;2.65;;;8.60;99.90;;;;;;5076768;28;20031;-60
2022/05/30 03:31:54;;;;;;;6.13;3.23;;;8.50;99.90;;;;;;5094887;28;20031;-61
2022/05/30 03:34:20;;;;;;;7.13;3.30;;;8.50;99.90;;;;;;5094729;28;20039;-61
2022/05/30 03:36:46;;;;;;;4.50;3.15;;;8.50;99.90;;;;;;5077161;28;20474;-60
2022/05/30 03:39:13;;;;;;;4.93;3.10;;;8.40;99.90;;;;;;5096779;28;20035;-60
2022/05/30 03:41:39;;;;;;;4.28;2.75;;;8.40;99.90;;;;;;5097602;28;20020;-62
2022/05/30 03:44:04;;;;;;;4.33;3.13;;;8.30;99.90;;;;;;5099162;28;20077;-60
2022/05/30 03:46:31;;;;;;;4.30;2.77;;;8.30;99.90;;;;;;5094342;28;20285;-60
2022/05/30 03:48:57;;;;;;;7.22;3.72;;;8.20;99.90;;;;;;5095062;28;20471;-61
2022/05/30 03:51:23;;;;;;;4.00;2.47;;;8.20;99.90;;;;;;5095906;28;20031;-62
2022/05/30 03:53:51;;;;;;;6.25;2.67;;;8.20;99.90;;;;;;5097718;28;20647;-62
2022/05/30 03:56:17;;;;;;;5.28;3.22;;;8.20;99.90;;;;;;5098891;28;20028;-61
2022/05/30 03:58:43;;;;;;;13.55;2.78;;;8.20;99.90;;;;;;5079063;28;20028;-61
2022/05/30 04:01:09;;;;;;;3.30;2.70;;;8.20;99.90;;;;;;5095623;28;20110;-59
2022/05/30 04:03:35;;;;;;;5.47;2.97;;;8.30;99.90;;;;;;5077630;28;20024;-61
2022/05/30 04:06:00;;;;;;;5.55;2.80;;;8.30;99.90;;;;;;5096716;28;20062;-60
2022/05/30 04:08:26;;;;;;;5.30;3.05;;;8.30;99.90;;;;;;5078177;28;20114;-62
2022/05/30 04:10:52;;;;;;;4.97;3.00;;;8.30;99.90;;;;;;5095103;28;20039;-62
2022/05/30 04:13:17;;;;;;;5.77;2.77;;;8.30;99.90;;;;;;5095344;28;20016;-60
2022/05/30 04:15:43;;;;;;;6.30;2.70;;;8.20;99.90;;;;;;5078831;28;20262;-64
2022/05/30 04:18:08;;;;;;;4.20;2.83;;;8.20;99.90;;;;;;5096580;28;20470;-61
2022/05/30 04:20:34;;;;;;;4.23;2.80;;;8.20;99.90;;;;;;5096651;28;20025;-62
2022/05/30 04:23:00;;;;;;;3.55;2.28;;;8.10;99.90;;;;;;5097612;28;20027;-63
2022/05/30 04:25:27;;;;;;;5.60;2.60;;;8.10;99.90;;;;;;5098433;28;20025;-63
2022/05/30 04:27:52;;;;;;;;;;;8.10;99.90;;;;;;5080605;28;20721;-62
2022/05/30 04:30:18;;;;;;;6.05;2.58;;;8.10;99.90;;;;;;5098373;28;19904;-62
2022/05/30 04:32:44;;;;;;;3.88;2.45;;;8.10;99.90;;;;;;5098723;28;20039;-63
2022/05/30 04:35:11;;;;;;;3.72;2.47;;;8.10;99.90;;;;;;5079717;28;20378;-62
2022/05/30 04:37:37;;;;;;;5.05;2.50;;;8.10;99.90;;;;;;5097483;28;20024;-63
2022/05/30 04:40:03;;;;;;;4.78;3.17;;;8.20;99.90;;;;;;5097160;28;20032;-63
2022/05/30 04:42:29;;;;;;;3.90;2.97;;;8.20;99.90;;;;;;5097696;28;20036;-63
2022/05/30 04:44:54;;;;;;;6.47;3.27;;;8.20;99.90;;;;;;5097835;28;20035;-63
2022/05/30 04:47:20;;;;;;;3.87;3.07;;;8.20;99.90;;;;;;5098704;28;20024;-63
2022/05/30 04:49:49;;;;;;;4.97;3.33;;;8.30;99.90;;;;;;5098627;28;20016;-63
2022/05/30 04:52:15;;;;;;;6.93;4.15;;;8.30;99.90;;;;;;5098020;28;20107;-63
2022/05/30 04:54:41;;;;;;;4.70;3.33;;;8.40;99.90;;;;;;5098121;28;20016;-63
2022/05/30 04:57:07;;;;;;;6.35;3.50;;;8.40;99.90;;;;;;5097565;28;20503;-63
2022/05/30 04:59:32;;;;;;;7.15;3.00;;;8.50;99.90;;;;;;5097283;28;20025;-62
2022/05/30 05:01:58;;;;;;;4.90;3.53;;;8.50;99.90;;;;;;5079706;28;20122;-63
2022/05/30 05:04:23;;;;;;;5.93;3.47;;;8.40;99.90;;;;;;5098486;28;20064;-65
2022/05/30 05:06:49;;;;;;;5.72;4.05;;;8.50;99.90;;;;;;5080038;28;20054;-64
2022/05/30 05:09:18;;;;;;;8.10;3.77;;;8.50;99.90;;;;;;5096918;28;20052;-65
2022/05/30 05:11:45;;;;;;;7.03;3.45;;;8.50;99.90;;;;;;5095996;28;20024;-64
2022/05/30 05:14:12;;;;;;;6.75;4.10;;;8.50;99.90;;;;;;5096008;28;20428;-64
2022/05/30 05:16:37;;;;;;;5.63;3.70;;;8.50;99.90;;;;;;5095803;28;20078;-64
2022/05/30 05:19:04;;;;;;;4.80;3.90;;;8.50;99.90;;;;;;5095694;28;20036;-64
2022/05/30 05:21:33;;;;;;;6.35;3.70;;;8.60;99.90;;;;;;5095511;28;20144;-66
2022/05/30 05:24:00;;;;;;;6.75;3.80;;;8.60;99.90;;;;;;5094992;28;20036;-64
2022/05/30 05:26:26;;;;;;;5.40;4.00;;;8.60;99.90;;;;;;5095025;28;20036;-64
2022/05/30 05:28:53;;;;;;;6.60;4.45;;;8.70;99.90;;;;;;5096408;28;20091;-64
2022/05/30 05:31:24;;;;;;;5.95;4.72;;;8.80;99.90;;;;;;5077594;28;20024;-64
2022/05/30 05:33:51;;;;;;;6.55;4.35;;;8.90;99.90;;;;;;5095203;28;20027;-64
2022/05/30 05:36:25;;;;;;;6.28;4.15;;;8.90;99.90;;;;;;5094861;28;20103;-64
2022/05/30 05:38:51;;;;;;;6.80;4.28;;;8.90;99.90;;;;;;5095027;28;20047;-63
2022/05/30 05:41:18;;;;;;;7.47;4.10;;;8.90;99.90;;;;;;5094503;28;20024;-63
2022/05/30 05:43:43;;;;;;;7.13;4.55;;;9.00;99.90;;;;;;5094601;28;20028;-64
2022/05/30 05:46:17;;;;;;;7.03;4.80;;;9.10;99.90;;;;;;5094619;28;20097;-64
2022/05/30 05:48:42;;;;;;;4.40;3.85;;;9.30;99.90;;;;;;5094250;28;20023;-64
2022/05/30 05:51:08;;;;;;;5.57;4.00;;;9.40;99.90;;;;;;5094450;28;20119;-64
2022/05/30 05:53:34;;;;;;;5.65;4.25;;;9.50;99.90;;;;;;5094452;28;20031;-65
2022/05/30 05:56:12;;;;;;;5.53;4.32;;;9.60;99.90;;;;;;5094243;28;20021;-65
2022/05/30 05:58:38;;;;;;;6.43;3.75;;;9.70;99.90;;;;;;5094504;28;20024;-65
2022/05/30 06:01:19;;;;;;;5.37;4.00;;;9.80;99.90;;;;;;5094839;28;20076;-65
2022/05/30 06:03:44;;;;;;;7.22;4.03;;;9.90;99.90;;;;;;5076866;28;20020;-64
2022/05/30 06:06:10;;;;;;;7.60;3.65;;;9.90;99.90;;;;;;5094184;28;20434;-63
2022/05/30 06:08:36;;;;;;;5.38;3.90;;;9.90;99.90;;;;;;5094612;28;20024;-64
2022/05/30 06:11:05;;;;;;;5.40;3.50;;;10.00;99.90;;;;;;5075585;28;20036;-64
2022/05/30 06:13:35;;;;;;;5.30;3.65;;;10.10;99.90;;;;;;5094260;28;20374;-64
2022/05/30 06:16:08;;;;;;;3.92;3.13;;;10.10;99.90;;;;;;5094354;28;20020;-64
2022/05/30 06:18:34;;;;;;;6.22;3.90;;;10.20;99.90;;;;;;5094495;28;20180;-64
2022/05/30 06:21:00;;;;;;;5.72;4.20;;;10.30;99.90;;;;;;5095223;28;20378;-65
2022/05/30 06:23:27;;;;;;;5.80;3.40;;;10.40;99.90;;;;;;5077923;28;20024;-65
2022/05/30 06:25:52;;;;;;;5.75;3.78;;;10.50;99.90;;;;;;5077895;28;20151;-64
2022/05/30 06:28:18;;;;;;;9.82;5.63;;;10.60;99.90;;;;;;5096078;28;20490;-65
2022/05/30 06:30:44;;;;;;;4.10;3.03;;;10.70;99.90;;;;;;5095927;28;20020;-64
2022/05/30 06:33:09;;;;;;;5.70;3.50;;;10.70;99.90;;;;;;5096278;28;20035;-64
2022/05/30 06:35:40;;;;;;;4.80;3.00;;;10.80;99.90;;;;;;5095331;28;20025;-64
2022/05/30 06:38:08;;;;;;;4.93;2.90;;;10.90;99.90;;;;;;5075766;28;20776;-64
2022/05/30 06:40:33;;;;;;;4.93;2.90;;;11.00;99.90;;;;;;5093734;28;20050;-65
2022/05/30 06:42:59;;;;;;;3.63;3.00;;;11.10;99.90;;;;;;5075392;28;20056;-65
2022/05/30 06:45:25;;;;;;;4.30;2.80;;;11.20;99.90;;;;;;5093294;28;20775;-65
2022/05/30 06:47:50;;;;;;;4.50;2.20;;;11.30;99.90;;;;;;5074974;28;20024;-65
2022/05/30 06:50:17;;;;;;;11.13;3.53;;;11.40;99.90;;;;;;5075295;28;20386;-65
2022/05/30 06:52:43;;;;;;;8.07;2.65;;;11.50;99.90;;;;;;5093343;28;20027;-64
2022/05/30 06:55:09;;;;;;;5.10;2.95;;;11.60;99.90;;;;;;5093926;28;20024;-64
2022/05/30 07:00:20;;;;;;;4.95;2.30;;;11.90;99.90;;;;;;5093507;28;19915;-64
2022/05/30 07:02:46;;;;;;;3.45;2.25;;;12.00;99.90;;;;;;5093260;28;20024;-64
2022/05/30 07:05:12;;;;;;;3.92;2.22;;;12.10;99.90;;;;;;5093308;28;20071;-64
2022/05/30 07:07:41;;;;;;;3.10;2.25;;;12.30;99.90;;;;;;5093197;28;20036;-66
2022/05/30 07:10:07;;;;;;;3.05;2.10;;;12.30;99.90;;;;;;5092810;28;20028;-64
2022/05/30 07:12:33;;;;;;;;;;;12.40;99.90;;;;;;5093458;28;20035;-64
2022/05/30 07:14:58;;;;;;;2.50;1.70;;;12.40;99.90;;;;;;5093176;28;19908;-64
2022/05/30 07:17:25;;;;;;;5.87;2.40;;;12.50;99.90;;;;;;5093337;28;20368;-64
2022/05/30 07:19:51;;;;;;;3.97;1.90;;;12.60;99.90;;;;;;5093365;28;20389;-65
2022/05/30 07:22:17;;;;;;;3.40;2.03;;;12.80;99.90;;;;;;5093358;28;20036;-64
2022/05/30 07:24:43;;;;;;;2.60;1.77;;;13.00;99.90;;;;;;5093335;28;20020;-63
2022/05/30 07:27:09;;;;;;;3.40;2.38;;;13.20;99.90;;;;;;5093203;28;20136;-64
2022/05/30 07:29:35;;;;;;;6.00;1.98;;;13.30;99.90;;;;;;5092915;28;20028;-64
2022/05/30 07:32:02;;;;;;;7.40;2.63;;;13.30;99.90;;;;;;5074838;28;20119;-65
2022/05/30 07:34:28;;;;;;;3.97;1.98;;;13.30;99.90;;;;;;5093738;28;20020;-65
2022/05/30 07:36:54;;;;;;;5.00;2.65;;;13.40;99.90;;;;;;5092945;28;20031;-65
2022/05/30 07:39:20;;;;;;;2.50;2.00;;;13.40;99.90;;;;;;5093061;28;20497;-65
2022/05/30 07:41:46;;;;;;;;;;;13.50;99.90;;;;;;5094269;28;20293;-65
2022/05/30 07:44:11;;;;;;;4.20;2.10;;;13.60;99.90;;;;;;5074834;28;19907;-67
2022/05/30 07:46:39;;;;;;;4.33;2.77;;;13.70;99.90;;;;;;5093068;28;20527;-65
2022/05/30 07:49:05;;;;;;;5.30;2.00;;;13.90;99.90;;;;;;5096112;28;20030;-67
2022/05/30 07:51:30;;;;;;;4.32;1.98;;;14.10;99.90;;;;;;5096857;28;20024;-65
2022/05/30 07:53:57;;;;;;;5.05;2.20;;;14.40;99.90;;;;;;5097333;28;20137;-65
2022/05/30 07:56:23;;;;;;;3.97;1.90;;;14.50;99.90;;;;;;5078945;28;20577;-66
2022/05/30 07:58:49;;;;;;;3.67;1.75;;;14.60;99.90;;;;;;5097037;28;20063;-66
2022/05/30 08:01:17;;;;;;;3.30;1.92;;;14.70;99.90;;;;;;5078475;28;20059;-65
2022/05/30 08:03:43;;;;;;;4.10;1.80;;;15.00;99.60;;;;;;5096535;28;20020;-65
2022/05/30 08:06:14;;;;;;;5.38;1.70;;;15.30;99.60;;;;;;5096519;28;20058;-65
2022/05/30 08:08:41;;;;;;;2.22;1.40;;;16.20;98.80;;;;;;5096727;28;20424;-66
2022/05/30 08:11:07;;;;;;;3.63;1.17;;;17.90;94.10;;;;;;5096410;28;20047;-65
2022/05/30 08:13:33;;;;;;;2.95;1.40;;;19.60;91.80;;;;;;5096641;28;20119;-65
2022/05/30 08:15:59;;;;;;;2.25;1.60;;;22.00;86.40;;;;;;5096193;28;20103;-65
2022/05/30 08:18:25;;;;;;;3.22;1.67;;;23.40;79.60;;;;;;5096390;28;20387;-64
2022/05/30 08:20:50;;;;;;;;;;;25.00;74.00;;;;;;5096604;28;20016;-65
2022/05/30 08:23:17;;;;;;;5.03;1.40;;;24.80;68.20;;;;;;5077925;28;19907;-65
2022/05/30 08:25:43;;;;;;;2.63;1.40;;;24.40;69.10;;;;;;5096138;28;20022;-65
2022/05/30 08:28:09;;;;;;;2.35;1.30;;;25.80;67.50;;;;;;5096353;28;20467;-65
2022/05/30 08:30:35;;;;;;;3.30;1.38;;;27.50;64.20;;;;;;5078245;28;20107;-66
2022/05/30 08:33:00;;;;;;;2.45;1.50;;;28.70;59.80;;;;;;5096194;28;20362;-65
2022/05/30 08:35:26;;;;;;;3.50;1.40;;;27.40;60.40;;;;;;5095908;28;20367;-67
2022/05/30 08:37:57;;;;;;;2.90;1.23;;;28.40;59.20;;;;;;5077738;28;20032;-65
2022/05/30 08:43:15;;;;;;;1.50;1.17;;;27.60;57.30;;;;;;5095999;28;20027;-65
2022/05/30 08:45:44;;;;;;;2.15;1.05;;;28.80;55.90;;;;;;5095511;28;20166;-65
2022/05/30 08:48:14;;;;;;;2.75;1.00;;;29.40;55.60;;;;;;5095481;28;20117;-65
2022/05/30 08:50:50;;;;;;;1.65;1.20;;;29.90;54.40;;;;;;5095584;28;20024;-65
2022/05/30 08:53:48;;;;;;;2.97;1.35;;;31.10;52.80;;;;;;5096276;28;20040;-66
2022/05/30 08:56:28;;;;;;;2.85;1.10;;;32.00;51.30;;;;;;5095544;28;20024;-66
2022/05/30 08:59:22;;;;;;;3.45;1.50;;;31.90;49.10;;;;;;5095079;28;20027;-65
2022/05/30 09:02:11;;;;;;;2.10;1.00;;;30.60;50.30;;;;;;5095436;28;20478;-65
2022/05/30 09:04:43;;;;;;;2.53;1.10;;;29.80;51.30;;;;;;5066706;28;20081;-65
2022/05/30 09:07:14;;;;;;;2.40;1.20;;;29.90;51.20;;;;;;5095750;28;20028;-65
2022/05/30 09:10:06;;;;;;;3.85;1.40;;;29.60;51.20;;;;;;5100703;22;20490;-66
2022/05/30 09:12:54;;;;;;;2.13;1.38;;;29.30;51.10;;;;;;5045706;28;20041;-67
2022/05/30 09:15:23;;;;;;;4.10;1.23;;;27.40;51.20;;;;;;5062306;28;20017;-67
2022/05/30 09:18:03;;;;;;;2.47;1.30;;;27.20;51.80;;;;;;5059237;28;20017;-66
2022/05/30 09:20:31;;;;;;;4.78;1.15;;;28.30;51.40;;;;;;5060251;28;20039;-67
2022/05/30 09:22:57;;;;;;;6.40;2.17;;;28.80;50.50;;;;;;5061397;28;20024;-65
2022/05/30 09:28:14;;;;;;;4.10;1.48;;;29.60;48.80;;;;;;5062479;28;20090;-68
2022/05/30 09:30:52;;;;;;;2.00;1.10;;;30.10;50.00;;;;;;5062833;28;20017;-67
2022/05/30 09:33:32;;;;;;;2.83;1.20;;;30.40;48.50;;;;;;5045944;28;20047;-65
2022/05/30 09:36:19;;;;;;;2.92;1.30;;;28.10;49.90;;;;;;5042704;28;20032;-66
2022/05/30 09:39:02;;;;;;;4.57;1.30;;;28.00;50.30;;;;;;5057806;28;20029;-66
2022/05/30 09:41:52;;;;;;;2.78;1.27;;;29.40;49.80;;;;;;5056542;28;20125;-67
2022/05/30 09:44:18;;;;;;;2.42;1.05;;;29.50;49.00;;;;;;5055115;28;20032;-65
2022/05/30 09:46:52;;;;;;;3.40;1.40;;;30.40;48.50;;;;;;5056242;28;20029;-66
2022/05/30 09:49:24;;;;;;;2.13;1.10;;;31.60;47.30;;;;;;5042407;28;20025;-67
2022/05/30 09:51:55;;;;;;;2.92;1.50;;;31.40;46.90;;;;;;5064575;28;20128;-67
2022/05/30 09:54:27;;;;;;;2.88;1.40;;;31.40;47.20;;;;;;5058005;28;20021;-66
2022/05/30 09:56:58;;;;;;;2.22;1.10;;;32.40;46.50;;;;;;5063413;28;20411;-66
2022/05/30 09:59:24;;;;;;;3.53;1.23;;;32.60;46.30;;;;;;5063702;28;20021;-67
2022/05/30 10:01:51;;;;;;;3.10;1.52;;;32.60;46.00;;;;;;5044185;28;20042;-67
2022/05/30 10:04:43;;;;;;;3.45;1.40;;;33.10;45.80;;;;;;5065237;28;20039;-66
2022/05/30 10:07:14;;;;;;;2.15;1.20;;;31.10;46.70;;;;;;5047539;28;20031;-66
2022/05/30 10:09:52;;;;;;;2.45;1.38;;;28.60;48.40;;;;;;5066155;28;20479;-67
2022/05/30 10:12:38;;;;;;;2.63;1.10;;;26.90;50.30;;;;;;5043645;28;20123;-67
2022/05/30 10:15:25;;;;;;;2.67;1.27;;;27.60;50.10;;;;;;5043871;28;20025;-67
2022/05/30 10:17:53;;;;;;;3.17;1.17;;;28.50;47.80;;;;;;5062988;28;20047;-66
2022/05/30 10:20:43;;;;;;;2.53;1.20;;;29.20;47.00;;;;;;5044693;28;20364;-67
2022/05/30 10:29:01;;;;;;;;;;;29.50;48.90;;;;;;5064403;28;20023;-67
2022/05/30 10:31:52;;;;;;;2.17;1.20;;;30.90;47.80;;;;;;5045091;28;19909;-67
2022/05/30 10:34:27;;;;;;;1.67;1.13;;;31.70;47.00;;;;;;5062240;28;20096;-67
2022/05/30 10:37:00;;;;;;;2.25;1.20;;;30.80;46.60;;;;;;5064531;28;20035;-66
2022/05/30 10:39:40;;;;;;;2.35;0.95;;;28.90;47.80;;;;;;5040841;28;20029;-66
2022/05/30 10:42:11;;;;;;;2.70;1.50;;;27.20;49.20;;;;;;5036527;28;20029;-66
2022/05/30 10:44:45;;;;;;;2.13;1.00;;;25.80;50.80;;;;;;5055458;28;20040;-66
2022/05/30 10:47:16;;;;;;;2.17;1.30;;;26.60;51.00;;;;;;5060304;28;20344;-67
2022/05/30 10:49:49;;;;;;;2.05;1.13;;;27.40;49.80;;;;;;5048482;28;20017;-66
2022/05/30 10:52:26;;;;;;;2.08;1.15;;;27.10;49.70;;;;;;5063811;28;20021;-67
2022/05/30 10:55:01;;;;;;;2.00;1.02;;;28.30;48.80;;;;;;5037402;28;20021;-66
2022/05/30 10:57:46;;;;;;;2.70;1.10;;;29.40;47.20;;;;;;5040623;28;20029;-65
2022/05/30 11:00:20;;;;;;;1.50;0.90;;;30.70;46.30;;;;;;5039352;28;20087;-65
2022/05/30 11:03:02;;;;;;;2.90;1.20;;;31.80;45.60;;;;;;5058832;28;20021;-65
2022/05/30 11:05:55;;;;;;;2.42;1.20;;;32.30;44.10;;;;;;5042077;28;20021;-66
2022/05/30 11:08:24;;;;;;;2.72;0.90;;;31.50;44.80;;;;;;5055390;28;20045;-65
2022/05/30 11:10:58;;;;;;;2.22;1.15;;;29.20;45.90;;;;;;5037376;28;20483;-66
2022/05/30 11:13:46;;;;;;;1.58;0.85;;;27.00;47.80;;;;;;5038883;28;20037;-66
2022/05/30 11:16:31;;;;;;;1.45;1.10;;;25.50;50.10;;;;;;5057153;28;20020;-66
2022/05/30 11:19:18;;;;;;;3.05;1.48;;;23.30;51.90;;;;;;5039987;28;20021;-65
2022/05/30 11:22:06;;;;;;;2.80;1.20;;;21.70;54.20;;;;;;5041571;28;20018;-66
2022/05/30 11:24:33;;;;;;;2.58;1.30;;;20.80;55.90;;;;;;5040816;28;20079;-64
2022/05/30 11:27:33;;;;;;;3.90;1.58;;;20.40;56.80;;;;;;5041487;28;20025;-64
2022/05/30 11:30:13;;;;;;;2.17;1.30;;;20.40;56.90;;;;;;5056332;28;20032;-65
2022/05/30 11:32:49;;;;;;;3.03;1.30;;;20.40;57.30;;;;;;5037190;28;20548;-64
2022/05/30 11:35:21;;;;;;;3.97;1.00;;;20.10;57.90;;;;;;5037602;28;20021;-64
2022/05/30 11:38:30;;;;;;;2.13;1.25;;;20.20;58.10;;;;;;5054538;28;20031;-64
2022/05/30 11:41:14;;;;;;;4.38;1.20;;;20.30;57.30;;;;;;5013676;28;20436;-65
2022/05/30 11:44:10;;;;;;;2.50;1.08;;;20.40;56.90;;;;;;4996855;28;20022;-65
2022/05/30 11:46:58;;;;;;;4.38;1.35;;;20.50;57.40;;;;;;4996821;28;20034;-66
2022/05/30 11:49:39;;;;;;;5.70;1.10;;;20.40;57.30;;;;;;4999450;28;20030;-65
2022/05/30 11:52:29;;;;;;;3.08;0.90;;;20.10;58.00;;;;;;4998176;28;20054;-65
2022/05/30 11:55:01;;;;;;;1.95;1.10;;;20.00;58.00;;;;;;5014646;28;20068;-65
2022/05/30 11:57:40;;;;;;;2.30;1.20;;;19.60;56.90;;;;;;4996291;28;20034;-65
2022/05/30 12:00:30;;;;;;;9.38;3.60;;;19.70;56.70;;;;;;4996576;28;20454;-66
2022/05/30 12:03:32;;;;;;;2.60;1.10;;;19.70;57.10;;;;;;5005548;28;20041;-65
2022/05/30 12:06:19;;;;;;;2.97;1.15;;;20.00;57.80;;;;;;5012780;28;20088;-65
2022/05/30 12:09:14;;;;;;;2.13;1.15;;;20.20;56.70;;;;;;5012814;28;20041;-65
2022/05/30 12:11:46;;;;;;;1.60;1.20;;;19.60;56.40;;;;;;5034840;28;20048;-65
2022/05/30 12:14:33;;;;;;;2.05;1.05;;;19.80;56.90;;;;;;5039205;28;20495;-65
2022/05/30 12:17:14;;;;;;;2.78;0.90;;;20.10;56.30;;;;;;5039309;28;20025;-66
2022/05/30 12:25:36;;;;;;;2.00;1.15;;;20.70;54.70;;;;;;5060369;28;20036;-66
2022/05/30 12:28:26;;;;;;;2.30;1.08;;;20.90;53.70;;;;;;5039607;28;20036;-66
2022/05/30 12:30:58;;;;;;;2.85;1.20;;;21.00;53.80;;;;;;5038974;28;20590;-66
2022/05/30 12:33:30;;;;;;;1.63;0.90;;;21.10;53.60;;;;;;5039031;28;20048;-65
2022/05/30 12:36:08;;;;;;;2.75;1.33;;;21.30;53.70;;;;;;5056019;28;20030;-65
2022/05/30 12:38:53;;;;;;;3.58;1.27;;;21.40;53.90;;;;;;5038543;28;20017;-65
2022/05/30 12:41:20;;;;;;;2.58;1.20;;;21.50;54.50;;;;;;5057027;28;20163;-65
2022/05/30 12:43:49;;;;;;;2.30;1.05;;;21.20;53.10;;;;;;5056142;28;20360;-65
2022/05/30 12:46:25;;;;;;;1.67;1.00;;;21.20;54.30;;;;;;5038353;28;20021;-65
2022/05/30 12:48:52;;;;;;;2.25;1.20;;;21.20;53.90;;;;;;5038377;28;20067;-65
2022/05/30 12:51:37;;;;;;;3.67;1.30;;;21.20;54.60;;;;;;5038217;28;20079;-65
2022/05/30 12:54:03;;;;;;;4.38;1.10;;;21.10;54.30;;;;;;5038476;28;20113;-66
2022/05/30 12:56:38;;;;;;;3.03;1.20;;;21.00;54.90;;;;;;5038510;28;20491;-65
2022/05/30 12:59:03;;;;;;;1.40;1.10;;;20.60;54.40;;;;;;5038001;28;20029;-65
2022/05/30 13:01:44;;;;;;;2.97;1.20;;;20.60;54.50;;;;;;5038400;28;20115;-66
2022/05/30 13:04:19;;;;;;;2.22;1.20;;;20.70;54.50;;;;;;5038714;28;20032;-65
2022/05/30 13:06:57;;;;;;;2.13;1.25;;;20.40;54.40;;;;;;5039450;28;20036;-65
2022/05/30 13:09:38;;;;;;;3.05;1.13;;;20.40;54.80;;;;;;5038765;28;20028;-65
2022/05/30 13:12:12;;;;;;;2.60;1.00;;;20.50;54.90;;;;;;5038334;28;20036;-65
2022/05/30 13:14:50;;;;;;;1.10;0.98;;;20.60;54.90;;;;;;5038316;28;20052;-65
2022/05/30 13:17:19;;;;;;;2.03;1.20;;;20.10;55.30;;;;;;5039251;28;20060;-66
2022/05/30 13:20:02;;;;;;;2.78;0.90;;;19.90;54.80;;;;;;5056826;28;20078;-64
2022/05/30 13:22:55;;;;;;;1.55;1.00;;;19.60;55.20;;;;;;5040275;28;20028;-63
2022/05/30 13:25:32;;;;;;;2.22;0.98;;;19.40;54.40;;;;;;5057534;28;20103;-64
2022/05/30 13:28:22;;;;;;;1.10;0.82;;;19.30;55.20;;;;;;5039407;28;20383;-64
2022/05/30 13:30:49;;;;;;;3.00;1.02;;;19.10;55.10;;;;;;5040455;28;20037;-64
2022/05/30 13:33:35;;;;;;;1.92;1.10;;;19.30;55.90;;;;;;5038921;28;20021;-66
2022/05/30 13:36:03;;;;;;;2.50;1.20;;;19.40;55.50;;;;;;5038182;28;20021;-66
2022/05/30 13:38:44;;;;;;;1.00;0.60;;;19.30;56.00;;;;;;5056125;28;20394;-68
2022/05/30 13:41:20;;;;;;;1.45;1.05;;;19.40;54.80;;;;;;5038978;28;20021;-66
2022/05/30 13:43:46;;;;;;;4.43;1.23;;;19.30;54.30;;;;;;5039700;28;20024;-64
2022/05/30 13:46:11;;;;;;;1.80;1.17;;;19.30;54.90;;;;;;5037501;28;20457;-65